• Join FlightAware (Why Join?)
  • Login
  • US Flag 
09:26PM EDT


 

Airport Tracker/Info


-or-


 

Live Flight TrackerFlight Track Log ✈ N100WX ✈ 31-Aug-2013 ✈ KACK - KBED

Flight Track Log - Related Links

Times and Time Zones

All times are in EDT time to prevent confusion due to time zone crossing. See the N100WX flight status page for this flight to view local times or setup timezone preferences in your user account.

Time Position Orientation Groundspeed Altitude Reporting Facility
EDT Latitude Longitude Course Direction KTS MPH feet Rate Location/Type
09:00PM 41.5111 -70.2638 330° Northwest  Level FlightAware Approximate
09:01PM 41.5553 -70.2980 330° Northwest  Level FlightAware Approximate
09:02PM 41.5995 -70.3323 330° Northwest  Level FlightAware Approximate
09:02PM 41.7333 -70.4333 330° Northwest 250 288 4,000  Level KA90
09:03PM 41.6437 -70.3666 330° Northwest  Level FlightAware Approximate
09:03PM 41.7500 -70.4667 304° West 244 281 4,000  Level KA90
09:04PM 41.6878 -70.4009 330° Northwest  Level FlightAware Approximate
09:04PM 41.8000 -70.5000 334° Northwest 231 266 4,000  Level KA90
09:05PM 41.7320 -70.4353 330° Northwest  Level FlightAware Approximate
09:05PM 41.8500 -70.5500 323° Northwest 227 261 4,000  Level KA90
09:06PM 41.7761 -70.4698 330° Northwest  Level FlightAware Approximate
09:06PM 41.8833 -70.6000 312° West 221 254 4,000  Level KA90
09:07PM 41.8203 -70.5042 330° Northwest  Level FlightAware Approximate
09:07PM 41.9500 -70.6500 331° Northwest 222 255 4,000  Level KA90
09:08PM 41.8644 -70.5388 330° Northwest  Level FlightAware Approximate
09:08PM 42.0000 -70.7000 323° Northwest 222 255 4,000  Level KA90
09:09PM 42.0333 -70.7500 312° West 219 252 4,000  Level KA90
09:10PM 42.0667 -70.8000 312° West 220 253 4,000  Level KA90
09:11PM 42.1167 -70.8667 315° West 217 250 4,000  Level KA90
09:12PM 42.1667 -70.9333 315° West 216 249 4,000  Level KA90
09:13PM 42.2000 -70.9833 312° West 215 247 4,000  Level KA90
09:14PM 42.2333 -71.0500 304° West 215 247 4,000  Level KA90
09:15PM 42.2833 -71.1000 324° Northwest 215 247 4,000 -180 Level KA90
09:16PM 42.3167 -71.1667 304° West 218 251 3,700 -480 Descending KA90
09:17PM 42.3667 -71.2333 315° West 228 262 3,100 -660 Descending KA90
09:18PM 42.4167 -71.2500 346° North 248 285 2,500 -660 Descending KA90
09:19PM 42.4667 -71.2167 26° Northeast 220 253 1,900 -360 Descending KA90
09:20PM 42.5167 -71.2000 14° North 121 139 1,800 -420 Descending KA90
09:21PM 42.5167 -71.2333 270° West 106 122 1,100 -540 Descending KA90
09:22PM 42.5000 -71.2667 236° Southwest 98 113 800 -300 Descending KA90
09:24PM 42.4667 -71.2833 231° Southwest  Level FlightAware Approximate
09:31PM 42.4699 -71.2890 231° Southwest  Level Estimated